createdAt,value
2022-11-04T00:02:13.026Z,21.10
2022-11-04T00:05:07.655Z,21.30
2022-11-04T00:08:20.139Z,21.50
2022-11-04T00:11:32.715Z,21.50
2022-11-04T00:14:27.311Z,21.60
2022-11-04T00:17:25.435Z,21.70
2022-11-04T00:20:42.869Z,21.70
2022-11-04T00:23:55.277Z,21.60
2022-11-04T00:27:07.785Z,21.60
2022-11-04T00:30:02.552Z,21.60
2022-11-04T00:33:14.889Z,21.60
2022-11-04T00:36:09.535Z,21.50
2022-11-04T00:39:03.959Z,21.60
2022-11-04T00:41:58.287Z,21.60
2022-11-04T00:44:52.666Z,21.70
2022-11-04T00:47:47.052Z,21.70
2022-11-04T00:50:41.490Z,21.70
2022-11-04T00:53:35.800Z,21.60
2022-11-04T00:56:30.179Z,21.50
2022-11-04T00:59:24.506Z,21.40
2022-11-04T01:02:18.953Z,21.40
2022-11-04T01:05:13.469Z,21.50
2022-11-04T01:08:07.952Z,21.70
2022-11-04T01:11:07.051Z,21.80
2022-11-04T01:14:01.641Z,22.00
2022-11-04T01:16:55.984Z,22.20
2022-11-04T01:19:50.396Z,22.30
2022-11-04T01:22:47.540Z,22.40
2022-11-04T01:25:42.898Z,22.60
2022-11-04T01:28:37.387Z,22.60
2022-11-04T01:31:33.394Z,22.60
2022-11-04T01:34:27.783Z,22.60
2022-11-04T01:37:22.299Z,22.70
2022-11-04T01:40:16.761Z,22.70
2022-11-04T01:43:21.346Z,22.80
2022-11-04T01:46:21.242Z,22.70
2022-11-04T01:49:27.643Z,22.90
2022-11-04T01:52:32.507Z,23.10
2022-11-04T01:55:43.197Z,23.20
2022-11-04T01:58:37.618Z,23.20
2022-11-04T02:01:32.653Z,23.20
2022-11-04T02:04:27.798Z,23.10
2022-11-04T02:07:22.562Z,23.10
2022-11-04T02:10:17.424Z,23.20
2022-11-04T02:13:12.219Z,23.30
2022-11-04T02:16:09.809Z,23.50
2022-11-04T02:19:29.682Z,23.50
2022-11-04T02:22:42.847Z,23.50
2022-11-04T02:25:58.824Z,23.50
2022-11-04T02:29:20.730Z,23.40
2022-11-04T02:32:27.418Z,23.40
2022-11-04T02:35:27.808Z,23.30
2022-11-04T02:39:17.722Z,23.30
2022-11-04T02:42:32.054Z,23.20
2022-11-04T02:45:30.408Z,23.30
2022-11-04T02:48:45.832Z,23.30
2022-11-04T02:52:08.839Z,23.40
2022-11-04T02:55:14.882Z,23.60
2022-11-04T02:58:15.227Z,23.70
2022-11-04T03:01:13.579Z,23.80
2022-11-04T03:04:21.529Z,23.80
2022-11-04T03:07:19.158Z,23.80
2022-11-04T03:10:35.891Z,23.70
2022-11-04T03:14:04.195Z,23.70
2022-11-04T03:17:03.180Z,23.70
2022-11-04T03:20:03.065Z,23.70
2022-11-04T03:23:01.002Z,23.70
2022-11-04T03:26:14.909Z,23.60
2022-11-04T03:29:27.556Z,23.50
2022-11-04T03:32:25.996Z,23.50
2022-11-04T03:35:21.278Z,23.50
2022-11-04T03:38:15.929Z,23.50
2022-11-04T03:41:17.374Z,23.50
2022-11-04T03:44:11.708Z,23.60
2022-11-04T03:47:06.287Z,23.70
2022-11-04T03:50:11.962Z,23.80
2022-11-04T03:53:11.018Z,24.10
2022-11-04T03:56:23.780Z,24.30
2022-11-04T03:59:30.211Z,24.50
2022-11-04T04:02:50.366Z,24.60
2022-11-04T04:05:48.389Z,24.60
2022-11-04T04:08:48.778Z,24.60
2022-11-04T04:12:13.063Z,24.50
2022-11-04T04:15:32.096Z,24.50
2022-11-04T04:18:55.679Z,24.70
2022-11-04T04:22:02.556Z,24.70
2022-11-04T04:25:19.664Z,24.70
2022-11-04T04:28:20.363Z,24.70
2022-11-04T04:31:37.061Z,24.70
2022-11-04T04:34:33.945Z,24.70
2022-11-04T04:37:30.092Z,24.70
2022-11-04T04:40:46.760Z,24.60
2022-11-04T04:44:05.393Z,24.50
2022-11-04T04:47:02.615Z,24.50
2022-11-04T04:50:03.124Z,24.50
2022-11-04T04:52:59.979Z,24.40
2022-11-04T04:55:54.389Z,24.40
2022-11-04T04:58:48.656Z,24.30
2022-11-04T05:01:43.148Z,24.30
2022-11-04T05:04:37.659Z,24.40
2022-11-04T05:07:32.112Z,24.20
2022-11-04T05:10:26.555Z,24.20
2022-11-04T05:13:33.028Z,24.30
2022-11-04T05:16:27.728Z,24.20
2022-11-04T05:19:22.080Z,24.10
2022-11-04T05:22:16.495Z,24.20
2022-11-04T05:25:11.083Z,24.20
2022-11-04T05:28:05.688Z,24.30
2022-11-04T05:31:04.446Z,24.20
2022-11-04T05:34:00.935Z,24.20
2022-11-04T05:36:55.426Z,24.10
2022-11-04T05:39:49.738Z,24.20
2022-11-04T05:42:44.105Z,24.20
2022-11-04T05:45:38.625Z,24.20
2022-11-04T05:48:37.723Z,24.40
2022-11-04T05:51:35.141Z,24.50
2022-11-04T05:54:29.511Z,24.50
2022-11-04T05:57:23.835Z,24.50
2022-11-04T06:00:18.532Z,24.50
2022-11-04T06:03:15.429Z,24.60
2022-11-04T06:06:10.977Z,24.70
2022-11-04T06:09:05.540Z,24.70
2022-11-04T06:12:01.158Z,24.60
2022-11-04T06:14:55.539Z,24.60
2022-11-04T06:17:50.038Z,24.70
2022-11-04T06:20:44.411Z,24.80
2022-11-04T06:23:39.037Z,24.70
2022-11-04T06:26:33.394Z,24.60
2022-11-04T06:29:30.586Z,24.60
2022-11-04T06:32:24.505Z,24.70
2022-11-04T06:35:18.892Z,24.70
2022-11-04T06:38:13.226Z,24.70
2022-11-04T06:41:15.613Z,24.80
2022-11-04T06:44:10.276Z,24.80
2022-11-04T06:47:04.842Z,24.90
2022-11-04T06:50:00.415Z,24.90
2022-11-04T06:52:54.782Z,25.00
2022-11-04T06:55:49.280Z,24.90
2022-11-04T06:58:43.939Z,24.90
2022-11-04T07:01:39.162Z,24.90
2022-11-04T07:04:33.783Z,24.90
2022-11-04T07:07:30.747Z,24.90
2022-11-04T07:10:25.246Z,25.00
2022-11-04T07:13:19.692Z,24.90
2022-11-04T07:16:16.933Z,24.90
2022-11-04T07:19:11.368Z,25.00
2022-11-04T07:22:05.677Z,24.90
2022-11-04T07:25:00.707Z,24.80
2022-11-04T07:27:56.724Z,24.70
2022-11-04T07:30:53.799Z,24.70
2022-11-04T07:33:51.202Z,24.60
2022-11-04T07:36:45.721Z,24.70
2022-11-04T07:39:40.125Z,24.70
2022-11-04T07:42:34.765Z,24.60
2022-11-04T07:45:29.306Z,24.70
2022-11-04T07:48:23.720Z,24.70
2022-11-04T07:51:20.152Z,24.60
2022-11-04T07:54:14.543Z,24.60
2022-11-04T07:57:09.641Z,24.60
2022-11-04T08:00:04.852Z,24.50
2022-11-04T08:02:59.472Z,24.40
2022-11-04T08:06:01.628Z,24.40
2022-11-04T08:08:56.083Z,24.20
2022-11-04T08:11:50.736Z,24.10
2022-11-04T08:14:45.153Z,23.90
2022-11-04T08:17:39.605Z,23.70
2022-11-04T08:20:34.073Z,23.60
2022-11-04T08:23:28.751Z,23.50
2022-11-04T08:26:25.145Z,23.30
2022-11-04T08:29:20.177Z,23.20
2022-11-04T08:32:14.649Z,23.20
2022-11-04T08:35:10.460Z,23.10
2022-11-04T08:38:05.004Z,23.10
2022-11-04T08:41:04.863Z,23.00
2022-11-04T08:44:02.235Z,22.80
2022-11-04T08:46:56.732Z,22.70
2022-11-04T08:49:51.076Z,22.50
2022-11-04T08:52:45.431Z,22.40
2022-11-04T08:55:39.903Z,22.30
2022-11-04T08:58:34.257Z,22.20
2022-11-04T09:01:35.372Z,22.00
2022-11-04T09:04:30.584Z,21.90
2022-11-04T09:07:25.025Z,21.80
2022-11-04T09:10:20.109Z,21.70
2022-11-04T09:13:17.848Z,21.70
2022-11-04T09:16:14.633Z,21.60
2022-11-04T09:19:09.567Z,21.60
2022-11-04T09:22:04.247Z,21.60
2022-11-04T09:24:58.627Z,21.50
2022-11-04T09:27:52.959Z,21.60
2022-11-04T09:30:50.009Z,21.50
2022-11-04T09:33:44.885Z,21.50
2022-11-04T09:36:39.378Z,21.50
2022-11-04T09:39:33.785Z,21.40
2022-11-04T09:42:43.600Z,21.40
2022-11-04T09:45:42.971Z,21.40
2022-11-04T09:48:45.198Z,21.30
2022-11-04T09:51:57.454Z,21.30
2022-11-04T09:55:08.207Z,21.20
2022-11-04T09:58:03.028Z,21.10
2022-11-04T10:01:14.002Z,21.00
2022-11-04T10:04:19.503Z,21.00
2022-11-04T10:07:39.551Z,21.00
2022-11-04T10:10:44.023Z,21.00
2022-11-04T10:14:11.806Z,21.00
2022-11-04T10:17:24.480Z,21.00
2022-11-04T10:20:28.288Z,20.90
2022-11-04T10:23:25.836Z,20.70
2022-11-04T10:26:47.811Z,20.70
2022-11-04T10:29:58.584Z,20.50
2022-11-04T10:33:23.231Z,20.40
2022-11-04T10:36:19.805Z,20.30
2022-11-04T10:39:30.515Z,20.30
2022-11-04T10:42:26.011Z,20.20
2022-11-04T10:45:24.718Z,20.10
2022-11-04T10:48:36.593Z,20.00
2022-11-04T10:51:31.032Z,20.00
2022-11-04T10:54:28.691Z,19.90
2022-11-04T10:57:29.753Z,19.80
2022-11-04T11:00:42.752Z,19.70
2022-11-04T11:03:37.484Z,19.70
2022-11-04T11:06:36.946Z,19.60
2022-11-04T11:09:34.770Z,19.50
2022-11-04T11:12:51.141Z,19.40
2022-11-04T11:15:46.398Z,19.40
2022-11-04T11:18:43.265Z,19.40
2022-11-04T11:21:47.024Z,19.20
2022-11-04T11:24:41.310Z,19.20
2022-11-04T11:27:35.729Z,19.20
2022-11-04T11:30:48.320Z,19.30
2022-11-04T11:33:54.123Z,19.30
2022-11-04T11:36:49.435Z,19.20
2022-11-04T11:39:46.476Z,19.20
2022-11-04T11:42:44.124Z,19.10
2022-11-04T11:45:39.175Z,19.10
2022-11-04T11:48:40.341Z,19.00
2022-11-04T11:51:39.470Z,18.90
2022-11-04T11:54:40.323Z,18.70
2022-11-04T12:01:43.589Z,18.60
2022-11-04T12:11:40.613Z,18.30
2022-11-04T12:14:56.695Z,18.10
2022-11-04T12:18:12.402Z,18.10
2022-11-04T12:21:18.197Z,18.00
2022-11-04T12:24:28.862Z,18.00
2022-11-04T12:27:29.040Z,17.90
2022-11-04T12:30:32.565Z,17.90
2022-11-04T12:33:39.783Z,17.90
2022-11-04T12:36:51.783Z,18.00
2022-11-04T12:40:02.095Z,18.10
2022-11-04T12:43:01.697Z,18.00
2022-11-04T12:46:16.023Z,18.00
2022-11-04T12:49:25.706Z,18.00
2022-11-04T12:52:44.537Z,18.00
2022-11-04T12:56:03.253Z,17.90
2022-11-04T12:59:06.924Z,18.00
2022-11-04T13:02:24.421Z,18.00
2022-11-04T13:05:40.210Z,17.90
2022-11-04T13:08:42.807Z,17.90
2022-11-04T13:11:52.179Z,17.90
2022-11-04T13:15:03.809Z,17.90
2022-11-04T13:18:09.496Z,17.90
2022-11-04T13:21:16.501Z,17.80
2022-11-04T13:24:31.819Z,17.80
2022-11-04T13:27:48.325Z,17.80
2022-11-04T13:30:48.839Z,17.80
2022-11-04T13:34:13.542Z,17.80
2022-11-04T13:37:40.926Z,17.70
2022-11-04T13:40:47.888Z,17.70
2022-11-04T13:43:51.594Z,17.70
2022-11-04T13:46:53.874Z,17.70
2022-11-04T13:49:53.398Z,17.60
2022-11-04T13:52:52.753Z,17.70
2022-11-04T13:55:52.555Z,17.70
2022-11-04T13:58:58.880Z,17.70
2022-11-04T14:02:13.154Z,17.60
2022-11-04T14:05:26.012Z,17.60
2022-11-04T14:08:21.396Z,17.50
2022-11-04T14:11:15.839Z,17.50
2022-11-04T14:14:20.791Z,17.50
2022-11-04T14:17:36.733Z,17.60
2022-11-04T14:20:34.918Z,17.60
2022-11-04T14:23:29.446Z,17.70
2022-11-04T14:26:29.126Z,17.70
2022-11-04T14:29:28.507Z,17.60
2022-11-04T14:32:31.980Z,17.60
2022-11-04T14:35:27.146Z,17.60
2022-11-04T14:38:38.187Z,17.60
2022-11-04T14:41:56.602Z,17.70
2022-11-04T14:44:52.244Z,17.60
2022-11-04T14:47:51.330Z,17.60
2022-11-04T14:50:49.388Z,17.60
2022-11-04T14:53:43.919Z,17.60
2022-11-04T14:56:38.302Z,17.60
2022-11-04T14:59:32.695Z,17.60
2022-11-04T15:02:32.576Z,17.60
2022-11-04T15:05:30.766Z,17.60
2022-11-04T15:08:33.736Z,17.60
2022-11-04T15:11:49.925Z,17.50
2022-11-04T15:14:44.367Z,17.50
2022-11-04T15:17:38.775Z,17.50
2022-11-04T15:20:34.534Z,17.50
2022-11-04T15:23:31.714Z,17.60
2022-11-04T15:26:30.579Z,17.60
2022-11-04T15:29:26.517Z,17.60
2022-11-04T15:32:20.907Z,17.70
2022-11-04T15:35:15.931Z,17.70
2022-11-04T15:38:14.260Z,17.70
2022-11-04T15:41:26.787Z,17.80
2022-11-04T15:44:24.291Z,17.70
2022-11-04T15:47:21.865Z,17.70
2022-11-04T15:50:28.511Z,17.50
2022-11-04T15:53:22.942Z,17.50
2022-11-04T15:56:23.723Z,17.40
2022-11-04T15:59:39.557Z,17.40
2022-11-04T16:02:36.883Z,17.40
2022-11-04T16:05:36.838Z,17.40
2022-11-04T16:08:32.297Z,17.50
2022-11-04T16:11:26.680Z,17.40
2022-11-04T16:14:32.385Z,17.40
2022-11-04T16:17:28.066Z,17.50
2022-11-04T16:20:22.840Z,17.50
2022-11-04T16:23:22.797Z,17.50
2022-11-04T16:26:17.556Z,17.50
2022-11-04T16:29:35.499Z,17.50
2022-11-04T16:32:43.503Z,17.40
2022-11-04T16:35:44.817Z,17.50
2022-11-04T16:38:39.113Z,17.50
2022-11-04T16:41:41.297Z,17.40
2022-11-04T16:44:35.990Z,17.50
2022-11-04T16:47:33.766Z,17.50
2022-11-04T16:50:29.821Z,17.50
2022-11-04T16:53:24.343Z,17.50
2022-11-04T16:56:25.834Z,17.50
2022-11-04T16:59:20.297Z,17.50
2022-11-04T17:02:24.849Z,17.40
2022-11-04T17:05:20.515Z,17.50
2022-11-04T17:08:15.173Z,17.50
2022-11-04T17:11:09.843Z,17.50
2022-11-04T17:14:05.320Z,17.50
2022-11-04T17:16:59.882Z,17.50
2022-11-04T17:19:54.295Z,17.60
2022-11-04T17:22:50.118Z,17.60
2022-11-04T17:25:45.729Z,17.60
2022-11-04T17:28:40.927Z,17.60
2022-11-04T17:31:35.295Z,17.50
2022-11-04T17:34:29.742Z,17.50
2022-11-04T17:37:24.062Z,17.40
2022-11-04T17:40:19.791Z,17.40
2022-11-04T17:43:32.302Z,17.30
2022-11-04T17:46:35.657Z,17.30
2022-11-04T17:49:30.659Z,17.30
2022-11-04T17:52:25.006Z,17.20
2022-11-04T17:55:26.198Z,17.20
2022-11-04T17:58:22.987Z,17.30
2022-11-04T18:01:19.641Z,17.30
2022-11-04T18:04:23.627Z,17.30
2022-11-04T18:07:18.463Z,17.30
2022-11-04T18:10:12.951Z,17.20
2022-11-04T18:13:08.743Z,17.30
2022-11-04T18:16:17.335Z,17.30
2022-11-04T18:19:12.552Z,17.30
2022-11-04T18:22:06.974Z,17.20
2022-11-04T18:25:01.379Z,17.20
2022-11-04T18:27:55.802Z,17.20
2022-11-04T18:30:50.184Z,17.10
2022-11-04T18:33:44.741Z,17.10
2022-11-04T18:36:42.878Z,17.20
2022-11-04T18:39:39.295Z,17.20
2022-11-04T18:42:33.684Z,17.10
2022-11-04T18:45:28.087Z,17.10
2022-11-04T18:48:23.216Z,17.20
2022-11-04T18:51:20.464Z,17.20
2022-11-04T18:54:15.944Z,17.20
2022-11-04T18:57:11.526Z,17.20
2022-11-04T19:00:07.123Z,17.20
2022-11-04T19:03:03.313Z,17.10
2022-11-04T19:05:57.627Z,17.10
2022-11-04T19:08:52.918Z,17.10
2022-11-04T19:11:47.991Z,17.10
2022-11-04T19:14:42.401Z,17.10
2022-11-04T19:17:38.430Z,17.10
2022-11-04T19:20:33.097Z,17.10
2022-11-04T19:23:27.423Z,17.10
2022-11-04T19:26:25.830Z,17.20
2022-11-04T19:29:20.191Z,17.20
2022-11-04T19:32:14.822Z,17.20
2022-11-04T19:35:09.352Z,17.30
2022-11-04T19:38:03.837Z,17.20
2022-11-04T19:41:03.536Z,17.20
2022-11-04T19:43:58.355Z,17.30
2022-11-04T19:46:52.807Z,17.30
2022-11-04T19:49:47.296Z,17.30
2022-11-04T19:52:41.710Z,17.30
2022-11-04T19:55:36.918Z,17.30
2022-11-04T19:58:31.220Z,17.30
2022-11-04T20:01:25.611Z,17.40
2022-11-04T20:04:20.496Z,17.40
2022-11-04T20:07:15.179Z,17.40
2022-11-04T20:10:10.530Z,17.40
2022-11-04T20:13:23.043Z,17.50
2022-11-04T20:16:23.122Z,17.50
2022-11-04T20:19:22.459Z,17.60
2022-11-04T20:22:17.702Z,17.60
2022-11-04T20:25:12.409Z,17.70
2022-11-04T20:28:07.689Z,17.70
2022-11-04T20:31:02.309Z,17.70
2022-11-04T20:33:58.071Z,17.80
2022-11-04T20:36:52.617Z,17.80
2022-11-04T20:39:46.992Z,17.90
2022-11-04T20:42:49.091Z,17.90
2022-11-04T20:45:46.986Z,18.00
2022-11-04T20:48:44.490Z,18.00
2022-11-04T20:51:51.683Z,18.10
2022-11-04T20:54:48.978Z,18.10
2022-11-04T20:57:43.299Z,18.20
2022-11-04T21:00:37.678Z,18.30
2022-11-04T21:03:32.240Z,18.40
2022-11-04T21:06:28.867Z,18.40
2022-11-04T21:09:23.852Z,18.50
2022-11-04T21:12:19.271Z,18.60
2022-11-04T21:15:35.532Z,18.70
2022-11-04T21:18:30.488Z,18.80
2022-11-04T21:21:25.820Z,19.00
2022-11-04T21:24:20.368Z,19.10
2022-11-04T21:27:14.680Z,19.30
2022-11-04T21:30:14.117Z,19.40
2022-11-04T21:33:08.450Z,19.40
2022-11-04T21:36:12.631Z,19.50
2022-11-04T21:39:07.478Z,19.60
2022-11-04T21:42:02.535Z,19.60
2022-11-04T21:44:57.414Z,19.70
2022-11-04T21:47:51.992Z,19.80
2022-11-04T21:50:46.334Z,19.90
2022-11-04T21:53:41.167Z,20.00
2022-11-04T21:56:35.996Z,20.10
2022-11-04T21:59:31.283Z,20.20
2022-11-04T22:02:25.743Z,20.40
2022-11-04T22:05:20.411Z,20.50
2022-11-04T22:08:22.229Z,20.60
2022-11-04T22:11:19.849Z,20.70
2022-11-04T22:14:14.670Z,20.90
2022-11-04T22:17:09.156Z,21.10
2022-11-04T22:20:03.718Z,21.30
2022-11-04T22:22:58.322Z,21.50
2022-11-04T22:25:52.793Z,21.60
2022-11-04T22:28:47.483Z,21.70
2022-11-04T22:31:44.066Z,21.80
2022-11-04T22:34:38.409Z,22.00
2022-11-04T22:37:32.751Z,22.30
2022-11-04T22:40:27.308Z,22.60
2022-11-04T22:43:21.610Z,22.80
2022-11-04T22:46:22.200Z,22.90
2022-11-04T22:49:16.592Z,23.00
2022-11-04T22:52:12.713Z,23.20
2022-11-04T22:55:07.581Z,23.50
2022-11-04T22:58:02.039Z,23.70
2022-11-04T23:01:01.734Z,24.00
2022-11-04T23:03:56.342Z,24.10
2022-11-04T23:06:50.771Z,24.20
2022-11-04T23:10:03.199Z,24.20
2022-11-04T23:13:15.666Z,24.30
2022-11-04T23:16:34.503Z,24.50
2022-11-04T23:19:30.968Z,24.50
2022-11-04T23:22:43.632Z,24.70
2022-11-04T23:25:38.059Z,24.70
2022-11-04T23:28:50.591Z,24.80
2022-11-04T23:31:45.033Z,24.80
2022-11-04T23:34:58.535Z,24.90
2022-11-04T23:37:59.897Z,25.00
2022-11-04T23:41:15.892Z,25.20
2022-11-04T23:44:29.927Z,25.30
2022-11-04T23:47:42.402Z,25.40
2022-11-04T23:50:55.417Z,25.50
2022-11-04T23:54:08.582Z,25.60
2022-11-04T23:57:21.742Z,25.50
